createdAt,value
2019-03-29T00:02:02.095Z,72.40
2019-03-29T00:04:28.638Z,71.29
2019-03-29T00:06:55.297Z,71.09
2019-03-29T00:09:21.862Z,70.13
2019-03-29T00:11:48.544Z,69.25
2019-03-29T00:14:15.938Z,69.63
2019-03-29T00:16:43.167Z,70.75
2019-03-29T00:19:09.802Z,70.31
2019-03-29T00:21:36.638Z,70.98
2019-03-29T00:24:07.112Z,71.97
2019-03-29T00:26:31.838Z,71.43
2019-03-29T00:28:58.376Z,71.22
2019-03-29T00:31:25.133Z,71.41
2019-03-29T00:33:51.795Z,70.78
2019-03-29T00:36:18.590Z,70.65
2019-03-29T00:38:45.176Z,71.07
2019-03-29T00:41:11.743Z,71.79
2019-03-29T00:43:38.337Z,70.56
2019-03-29T00:46:04.951Z,69.95
2019-03-29T00:48:31.527Z,70.15
2019-03-29T00:50:59.007Z,70.29
2019-03-29T00:53:26.089Z,72.21
2019-03-29T00:55:52.662Z,71.47
2019-03-29T00:58:19.242Z,71.33
2019-03-29T01:00:46.139Z,71.39
2019-03-29T01:03:12.797Z,70.95
2019-03-29T01:05:39.547Z,70.31
2019-03-29T01:08:08.274Z,69.69
2019-03-29T01:10:36.967Z,69.64
2019-03-29T01:13:03.657Z,70.06
2019-03-29T01:15:30.242Z,70.15
2019-03-29T01:17:57.114Z,70.85
2019-03-29T01:20:23.787Z,71.37
2019-03-29T01:22:50.424Z,72.58
2019-03-29T01:25:17.050Z,71.39
2019-03-29T01:27:43.660Z,70.67
2019-03-29T01:30:12.416Z,69.94
2019-03-29T01:32:39.030Z,69.58
2019-03-29T01:35:06.939Z,69.33
2019-03-29T01:37:33.893Z,69.62
2019-03-29T01:40:00.434Z,69.26
2019-03-29T01:42:27.027Z,69.81
2019-03-29T01:44:54.771Z,69.42
2019-03-29T01:47:21.402Z,69.21
2019-03-29T01:49:48.004Z,69.09
2019-03-29T01:52:14.657Z,69.39
2019-03-29T01:54:41.302Z,68.77
2019-03-29T01:57:07.925Z,69.17
2019-03-29T01:59:34.641Z,69.46
2019-03-29T02:02:01.470Z,70.47
2019-03-29T02:04:28.039Z,70.43
2019-03-29T02:06:54.732Z,71.30
2019-03-29T02:09:21.339Z,70.79
2019-03-29T02:11:48.124Z,69.46
2019-03-29T02:14:14.784Z,69.33
2019-03-29T02:16:42.763Z,69.37
2019-03-29T02:19:09.334Z,69.00
2019-03-29T02:21:36.214Z,69.86
2019-03-29T02:24:04.185Z,69.64
2019-03-29T02:26:30.752Z,69.75
2019-03-29T02:28:57.341Z,70.02
2019-03-29T02:31:26.079Z,70.09
2019-03-29T02:33:52.485Z,71.35
2019-03-29T02:36:19.063Z,71.69
2019-03-29T02:38:54.987Z,71.26
2019-03-29T02:41:15.581Z,70.95
2019-03-29T02:43:42.507Z,71.79
2019-03-29T02:46:09.196Z,71.48
2019-03-29T02:48:36.310Z,71.60
2019-03-29T02:51:04.379Z,71.52
2019-03-29T02:53:31.355Z,71.23
2019-03-29T02:55:57.974Z,71.52
2019-03-29T02:58:24.658Z,70.72
2019-03-29T03:00:51.258Z,70.80
2019-03-29T03:03:18.003Z,71.10
2019-03-29T03:05:44.708Z,70.32
2019-03-29T03:08:11.535Z,71.30
2019-03-29T03:10:38.221Z,71.38
2019-03-29T03:13:04.922Z,71.95
2019-03-29T03:15:31.550Z,70.90
2019-03-29T03:17:58.232Z,71.20
2019-03-29T03:20:24.906Z,71.71
2019-03-29T03:22:51.620Z,71.92
2019-03-29T03:25:18.255Z,71.72
2019-03-29T03:27:44.800Z,71.12
2019-03-29T03:30:12.410Z,70.99
2019-03-29T03:32:39.258Z,70.48
2019-03-29T03:35:08.586Z,70.86
2019-03-29T03:37:36.724Z,70.42
2019-03-29T03:40:07.423Z,70.94
2019-03-29T03:42:34.167Z,70.76
2019-03-29T03:45:00.819Z,70.79
2019-03-29T03:47:27.869Z,70.32
2019-03-29T03:49:54.510Z,70.62
2019-03-29T03:52:21.448Z,70.21
2019-03-29T03:54:48.320Z,71.79
2019-03-29T03:57:18.022Z,72.54
2019-03-29T03:59:45.096Z,72.65
2019-03-29T04:02:11.792Z,74.05
2019-03-29T04:04:38.637Z,72.96
2019-03-29T04:07:05.589Z,71.53
2019-03-29T04:09:48.411Z,71.63
2019-03-29T04:12:00.943Z,71.33
2019-03-29T04:14:27.527Z,71.58
2019-03-29T04:16:54.128Z,71.06
2019-03-29T04:19:20.822Z,71.10
2019-03-29T04:21:48.677Z,71.87
2019-03-29T04:24:15.360Z,72.19
2019-03-29T04:26:41.909Z,70.90
2019-03-29T04:29:08.564Z,70.58
2019-03-29T04:31:35.318Z,70.67
2019-03-29T04:34:01.960Z,71.05
2019-03-29T04:36:28.538Z,70.75
2019-03-29T04:38:55.124Z,72.61
2019-03-29T04:41:21.673Z,72.26
2019-03-29T04:43:48.372Z,71.76
2019-03-29T04:46:15.081Z,71.29
2019-03-29T04:48:41.935Z,71.30
2019-03-29T04:51:09.202Z,71.61
2019-03-29T04:53:36.067Z,72.54
2019-03-29T04:56:02.921Z,72.35
2019-03-29T04:58:30.934Z,72.03
2019-03-29T05:00:58.315Z,71.67
2019-03-29T05:03:25.026Z,71.72
2019-03-29T05:05:51.694Z,74.31
2019-03-29T05:08:18.315Z,74.39
2019-03-29T05:10:44.901Z,73.71
2019-03-29T05:13:11.491Z,74.02
2019-03-29T05:15:38.412Z,73.49
2019-03-29T05:18:05.203Z,72.87
2019-03-29T05:20:31.881Z,72.97
2019-03-29T05:22:58.701Z,73.20
2019-03-29T05:25:25.364Z,73.26
2019-03-29T05:27:51.982Z,72.37
2019-03-29T05:30:18.568Z,72.79
2019-03-29T05:32:45.139Z,73.04
2019-03-29T05:35:11.916Z,73.91
2019-03-29T05:37:38.502Z,74.30
2019-03-29T05:40:05.428Z,74.42
2019-03-29T05:42:32.154Z,74.00
2019-03-29T05:44:58.705Z,74.39
2019-03-29T05:47:25.311Z,73.67
2019-03-29T05:49:51.890Z,74.32
2019-03-29T05:52:18.449Z,73.10
2019-03-29T05:54:45.049Z,72.61
2019-03-29T05:57:11.596Z,72.21
2019-03-29T05:59:38.484Z,73.34
2019-03-29T06:02:05.291Z,73.17
2019-03-29T06:04:31.848Z,72.95
2019-03-29T06:06:58.500Z,74.09
2019-03-29T06:09:25.078Z,73.11
2019-03-29T06:11:51.767Z,73.57
2019-03-29T06:14:18.347Z,74.09
2019-03-29T06:16:44.918Z,74.09
2019-03-29T06:19:11.583Z,74.26
2019-03-29T06:21:38.282Z,73.12
2019-03-29T06:24:04.960Z,72.87
2019-03-29T06:26:31.542Z,72.11
2019-03-29T06:28:58.174Z,71.88
2019-03-29T06:31:25.079Z,72.04
2019-03-29T06:33:51.834Z,71.92
2019-03-29T06:36:21.479Z,71.42
2019-03-29T06:38:50.227Z,70.99
2019-03-29T06:41:16.787Z,71.79
2019-03-29T06:43:43.707Z,71.19
2019-03-29T06:46:10.276Z,71.94
2019-03-29T06:48:36.847Z,70.92
2019-03-29T06:51:03.567Z,70.53
2019-03-29T06:53:30.137Z,70.33
2019-03-29T06:55:59.339Z,69.73
2019-03-29T06:58:25.216Z,68.28
2019-03-29T07:00:51.908Z,68.48
2019-03-29T07:03:19.030Z,67.97
2019-03-29T07:05:45.869Z,67.56
2019-03-29T07:08:12.412Z,67.55
2019-03-29T07:10:39.218Z,67.28
2019-03-29T07:13:05.775Z,67.39
2019-03-29T07:15:32.448Z,66.06
2019-03-29T07:17:59.018Z,65.87
2019-03-29T07:20:25.584Z,65.72
2019-03-29T07:22:52.240Z,65.25
2019-03-29T07:25:18.784Z,65.17
2019-03-29T07:27:52.085Z,64.75
2019-03-29T07:30:15.526Z,64.13
2019-03-29T07:32:42.110Z,63.63
2019-03-29T07:35:08.994Z,63.50
2019-03-29T07:37:35.797Z,63.74
2019-03-29T07:40:03.550Z,64.03
2019-03-29T07:42:30.258Z,63.92
2019-03-29T07:44:57.324Z,64.19
2019-03-29T07:47:23.915Z,65.64
2019-03-29T07:49:50.583Z,65.38
2019-03-29T07:52:17.205Z,66.04
2019-03-29T07:54:43.883Z,66.34
2019-03-29T07:57:13.462Z,65.89
2019-03-29T07:59:42.069Z,65.59
2019-03-29T08:02:08.919Z,66.06
2019-03-29T08:04:35.668Z,66.34
2019-03-29T08:07:02.238Z,66.09
2019-03-29T08:09:28.785Z,65.64
2019-03-29T08:11:55.708Z,65.97
2019-03-29T08:14:22.374Z,66.96
2019-03-29T08:16:49.206Z,67.00
2019-03-29T08:19:15.844Z,66.08
2019-03-29T08:21:42.625Z,65.30
2019-03-29T08:24:09.299Z,65.10
2019-03-29T08:26:36.143Z,65.35
2019-03-29T08:29:03.253Z,65.37
2019-03-29T08:31:29.994Z,66.01
2019-03-29T08:33:56.643Z,65.86
2019-03-29T08:36:23.480Z,65.91
2019-03-29T08:38:50.238Z,66.25
2019-03-29T08:41:16.995Z,66.67
2019-03-29T08:43:43.853Z,66.33
2019-03-29T08:46:10.784Z,65.76
2019-03-29T08:48:37.591Z,65.16
2019-03-29T08:51:04.486Z,65.12
2019-03-29T08:53:31.164Z,65.18
2019-03-29T08:55:57.715Z,64.78
2019-03-29T08:58:24.302Z,65.21
2019-03-29T09:00:51.423Z,65.08
2019-03-29T09:03:18.302Z,64.58
2019-03-29T09:05:46.026Z,64.36
2019-03-29T09:08:13.639Z,65.18
2019-03-29T09:10:40.319Z,65.07
2019-03-29T09:13:07.006Z,65.09
2019-03-29T09:15:33.763Z,65.75
2019-03-29T09:18:00.378Z,64.48
2019-03-29T09:20:27.094Z,64.61
2019-03-29T09:22:53.740Z,64.28
2019-03-29T09:25:21.168Z,64.22
2019-03-29T09:27:49.486Z,64.84
2019-03-29T09:30:16.330Z,64.82
2019-03-29T09:32:43.220Z,65.30
2019-03-29T09:35:11.923Z,64.56
2019-03-29T09:37:38.689Z,64.32
2019-03-29T09:40:06.003Z,64.14
2019-03-29T09:42:32.850Z,63.77
2019-03-29T09:44:59.465Z,64.65
2019-03-29T09:47:26.085Z,64.32
2019-03-29T09:49:52.652Z,63.67
2019-03-29T09:52:20.793Z,63.24
2019-03-29T09:54:49.253Z,63.50
2019-03-29T09:57:15.988Z,63.73
2019-03-29T09:59:42.684Z,62.98
2019-03-29T10:02:09.440Z,63.38
2019-03-29T10:04:36.112Z,63.86
2019-03-29T10:07:02.810Z,64.02
2019-03-29T10:09:29.498Z,64.50
2019-03-29T10:11:57.198Z,63.49
2019-03-29T10:14:23.884Z,63.46
2019-03-29T10:16:50.620Z,62.73
2019-03-29T10:19:17.198Z,61.76
2019-03-29T10:21:43.784Z,61.38
2019-03-29T10:24:10.343Z,61.57
2019-03-29T10:26:36.943Z,61.85
2019-03-29T10:29:03.639Z,61.06
2019-03-29T10:31:32.541Z,61.33
2019-03-29T10:33:58.834Z,61.25
2019-03-29T10:36:25.641Z,60.51
2019-03-29T10:38:52.357Z,60.09
2019-03-29T10:41:22.631Z,60.69
2019-03-29T10:43:47.617Z,59.62
2019-03-29T10:46:14.237Z,59.32
2019-03-29T10:48:40.924Z,59.02
2019-03-29T10:51:08.743Z,58.75
2019-03-29T10:53:35.445Z,57.84
2019-03-29T10:56:02.665Z,57.62
2019-03-29T10:58:29.511Z,57.82
2019-03-29T11:00:56.049Z,57.47
2019-03-29T11:03:22.745Z,57.73
2019-03-29T11:05:49.338Z,57.02
2019-03-29T11:08:16.088Z,57.22
2019-03-29T11:10:43.875Z,57.06
2019-03-29T11:13:13.912Z,55.94
2019-03-29T11:15:39.279Z,55.38
2019-03-29T11:18:06.801Z,55.38
2019-03-29T11:20:33.626Z,56.04
2019-03-29T11:23:00.620Z,55.91
2019-03-29T11:25:27.174Z,55.47
2019-03-29T11:27:55.908Z,55.51
2019-03-29T11:30:22.675Z,55.54
2019-03-29T11:32:49.420Z,55.52
2019-03-29T11:35:16.158Z,56.60
2019-03-29T11:37:42.727Z,57.06
2019-03-29T11:40:11.528Z,56.78
2019-03-29T11:42:38.272Z,57.76
2019-03-29T11:45:05.264Z,57.81
2019-03-29T11:47:31.846Z,57.63
2019-03-29T11:49:58.632Z,57.76
2019-03-29T11:52:26.832Z,57.39
2019-03-29T11:54:53.436Z,58.09
2019-03-29T11:58:16.678Z,58.18
2019-03-29T12:00:44.248Z,57.50
2019-03-29T12:03:11.417Z,57.40
2019-03-29T12:05:38.286Z,58.29
2019-03-29T12:08:05.437Z,58.36
2019-03-29T12:10:32.611Z,58.14
2019-03-29T12:12:59.560Z,58.18
2019-03-29T12:15:29.424Z,57.89
2019-03-29T12:17:56.140Z,57.98
2019-03-29T12:20:24.454Z,58.16
2019-03-29T12:22:51.209Z,58.42
2019-03-29T12:25:18.185Z,58.71
2019-03-29T12:27:44.746Z,58.24
2019-03-29T12:30:23.693Z,58.32
2019-03-29T12:32:40.721Z,58.12
2019-03-29T12:35:10.069Z,58.45
2019-03-29T12:37:36.440Z,58.42
2019-03-29T12:40:06.133Z,57.83
2019-03-29T12:42:32.866Z,58.45
2019-03-29T12:44:59.469Z,58.61
2019-03-29T12:47:26.296Z,58.74
2019-03-29T12:49:52.896Z,58.17
2019-03-29T12:52:19.714Z,58.62
2019-03-29T12:54:46.333Z,58.89
2019-03-29T12:57:13.082Z,58.45
2019-03-29T12:59:39.659Z,58.24
2019-03-29T13:02:09.129Z,58.13
2019-03-29T13:04:36.015Z,58.26
2019-03-29T13:07:03.120Z,58.82
2019-03-29T13:09:29.674Z,58.04
2019-03-29T13:11:56.500Z,57.76
2019-03-29T13:14:23.136Z,58.35
2019-03-29T13:16:49.681Z,58.13
2019-03-29T13:19:16.269Z,58.30
2019-03-29T13:21:42.840Z,58.53
2019-03-29T13:24:09.529Z,58.20
2019-03-29T13:26:36.288Z,57.87
2019-03-29T13:29:03.479Z,58.15
2019-03-29T13:31:30.054Z,57.50
2019-03-29T13:33:56.631Z,58.10
2019-03-29T13:36:23.319Z,58.15
2019-03-29T13:38:49.989Z,57.62
2019-03-29T13:41:16.657Z,57.91
2019-03-29T13:43:43.263Z,57.78
2019-03-29T13:46:09.867Z,57.79
2019-03-29T13:48:36.501Z,57.13
2019-03-29T13:51:03.363Z,56.90
2019-03-29T13:53:30.107Z,57.24
2019-03-29T13:55:57.066Z,57.35
2019-03-29T13:58:23.703Z,57.75
2019-03-29T14:00:50.406Z,57.76
2019-03-29T14:03:17.044Z,58.11
2019-03-29T14:05:45.116Z,57.62
2019-03-29T14:08:12.094Z,57.64
2019-03-29T14:10:39.124Z,57.65
2019-03-29T14:13:06.055Z,58.35
2019-03-29T14:15:32.977Z,58.22
2019-03-29T14:17:59.705Z,57.82
2019-03-29T14:20:30.362Z,57.82
2019-03-29T14:22:59.682Z,58.18
2019-03-29T14:25:26.416Z,57.93
2019-03-29T14:27:53.132Z,57.83
2019-03-29T14:30:20.046Z,58.19
2019-03-29T14:32:46.638Z,58.18
2019-03-29T14:35:13.474Z,57.91
2019-03-29T14:37:40.208Z,58.21
2019-03-29T14:40:07.879Z,58.21
2019-03-29T14:42:35.207Z,58.02
2019-03-29T14:45:05.307Z,58.42
2019-03-29T14:47:41.198Z,58.64
2019-03-29T14:50:00.569Z,58.66
2019-03-29T14:52:27.162Z,58.50
2019-03-29T14:54:53.794Z,58.71
2019-03-29T14:57:20.354Z,59.35
2019-03-29T14:59:48.166Z,59.14
2019-03-29T15:02:15.044Z,59.14
2019-03-29T15:04:41.906Z,58.60
2019-03-29T15:07:08.763Z,58.76
2019-03-29T15:09:35.654Z,59.03
2019-03-29T15:12:02.346Z,58.81
2019-03-29T15:14:28.907Z,58.65
2019-03-29T15:16:55.583Z,58.44
2019-03-29T15:19:22.944Z,59.11
2019-03-29T15:21:50.705Z,58.88
2019-03-29T15:24:19.244Z,58.93
2019-03-29T15:26:46.508Z,58.51
2019-03-29T15:29:13.318Z,58.97
2019-03-29T15:31:39.955Z,59.40
2019-03-29T15:34:06.688Z,59.06
2019-03-29T15:36:33.325Z,59.12
2019-03-29T15:38:59.876Z,59.23
2019-03-29T15:41:26.575Z,59.43
2019-03-29T15:43:53.185Z,58.69
2019-03-29T15:46:22.390Z,58.45
2019-03-29T15:48:48.981Z,59.39
2019-03-29T15:51:15.635Z,59.75
2019-03-29T15:53:42.188Z,59.56
2019-03-29T15:56:08.830Z,59.20
2019-03-29T15:58:35.519Z,59.21
2019-03-29T16:01:02.796Z,59.34
2019-03-29T16:03:29.426Z,59.76
2019-03-29T16:05:56.142Z,59.49
2019-03-29T16:08:22.890Z,59.36
2019-03-29T16:10:49.569Z,59.12
2019-03-29T16:13:16.274Z,59.40
2019-03-29T16:15:42.994Z,58.92
2019-03-29T16:18:09.709Z,58.84
2019-03-29T16:20:36.641Z,57.90
2019-03-29T16:23:03.643Z,58.10
2019-03-29T16:25:30.352Z,57.08
2019-03-29T16:27:57.297Z,56.69
2019-03-29T16:30:24.108Z,56.53
2019-03-29T16:32:50.721Z,56.43
2019-03-29T16:35:17.507Z,56.26
2019-03-29T16:37:56.641Z,56.07
2019-03-29T16:40:13.064Z,56.30
2019-03-29T16:42:39.649Z,56.18
2019-03-29T16:45:07.992Z,55.73
2019-03-29T16:47:35.106Z,56.17
2019-03-29T16:50:05.702Z,56.29
2019-03-29T16:52:32.442Z,56.28
2019-03-29T16:55:11.951Z,56.40
2019-03-29T16:57:27.691Z,56.76
2019-03-29T16:59:54.369Z,56.65
2019-03-29T17:02:21.082Z,56.86
2019-03-29T17:04:47.635Z,57.22
2019-03-29T17:07:14.382Z,57.32
2019-03-29T17:09:41.706Z,56.90
2019-03-29T17:12:08.969Z,56.77
2019-03-29T17:14:39.572Z,57.18
2019-03-29T17:17:08.977Z,57.99
2019-03-29T17:19:37.591Z,58.20
2019-03-29T17:22:05.258Z,58.43
2019-03-29T17:24:32.587Z,58.73
2019-03-29T17:27:00.238Z,58.74
2019-03-29T17:29:27.110Z,58.53
2019-03-29T17:31:53.812Z,58.23
2019-03-29T17:34:20.673Z,59.28
2019-03-29T17:36:47.232Z,59.51
2019-03-29T17:39:15.070Z,59.70
2019-03-29T17:41:41.739Z,59.56
2019-03-29T17:44:08.381Z,59.58
2019-03-29T17:46:35.557Z,59.08
2019-03-29T17:49:02.399Z,59.45
2019-03-29T17:51:29.200Z,60.18
2019-03-29T17:53:56.471Z,60.35
2019-03-29T17:56:23.155Z,59.80
2019-03-29T17:58:49.936Z,59.65
2019-03-29T18:01:17.141Z,59.64
2019-03-29T18:03:44.023Z,59.00
2019-03-29T18:06:11.082Z,58.81
2019-03-29T18:08:38.848Z,59.53
2019-03-29T18:11:05.447Z,59.83
2019-03-29T18:13:32.393Z,59.85
2019-03-29T18:15:59.098Z,59.37
2019-03-29T18:18:26.419Z,59.39
2019-03-29T18:20:53.651Z,58.96
2019-03-29T18:23:20.377Z,59.34
2019-03-29T18:25:47.140Z,59.46
2019-03-29T18:28:14.252Z,58.86
2019-03-29T18:30:41.869Z,58.80
2019-03-29T18:33:12.736Z,59.02
2019-03-29T18:35:40.117Z,58.69
2019-03-29T18:38:07.730Z,58.98
2019-03-29T18:40:35.017Z,59.08
2019-03-29T18:43:02.045Z,59.74
2019-03-29T18:45:28.847Z,59.94
2019-03-29T18:47:55.458Z,59.35
2019-03-29T18:50:22.200Z,59.32
2019-03-29T18:52:49.148Z,59.80
2019-03-29T18:55:15.998Z,59.38
2019-03-29T18:57:42.586Z,59.74
2019-03-29T19:00:12.818Z,59.63
2019-03-29T19:02:40.119Z,59.49
2019-03-29T19:05:12.662Z,59.07
2019-03-29T19:07:39.594Z,59.45
2019-03-29T19:10:06.866Z,59.62
2019-03-29T19:12:33.883Z,59.00
2019-03-29T19:15:01.281Z,59.28
2019-03-29T19:17:29.394Z,59.27
2019-03-29T19:19:56.584Z,59.54
2019-03-29T19:23:19.541Z,59.52
2019-03-29T19:25:46.135Z,59.05
2019-03-29T19:28:12.938Z,59.84
2019-03-29T19:30:58.350Z,59.09
2019-03-29T19:33:25.289Z,59.06
2019-03-29T19:35:52.262Z,59.67
2019-03-29T19:38:18.867Z,59.94
2019-03-29T19:40:46.763Z,59.36
2019-03-29T19:43:13.613Z,59.40
2019-03-29T19:45:40.297Z,59.52
2019-03-29T19:48:08.818Z,59.23
2019-03-29T19:50:35.703Z,59.55
2019-03-29T19:53:02.655Z,59.40
2019-03-29T19:55:29.229Z,59.52
2019-03-29T19:57:55.965Z,59.51
2019-03-29T20:00:29.271Z,59.83
2019-03-29T20:02:56.127Z,60.04
2019-03-29T20:05:26.308Z,60.21
2019-03-29T20:07:55.694Z,59.83
2019-03-29T20:10:24.651Z,59.89
2019-03-29T20:12:51.872Z,60.06
2019-03-29T20:15:18.856Z,60.56
2019-03-29T20:17:45.497Z,60.77
2019-03-29T20:20:17.827Z,60.74
2019-03-29T20:22:45.523Z,60.77
2019-03-29T20:25:12.308Z,60.12
2019-03-29T20:27:38.935Z,61.06
2019-03-29T20:30:06.407Z,61.74
2019-03-29T20:32:36.449Z,61.23
2019-03-29T20:35:04.959Z,61.65
2019-03-29T20:37:33.751Z,61.51
2019-03-29T20:40:00.584Z,61.27
2019-03-29T20:42:29.638Z,61.87
2019-03-29T20:44:56.700Z,61.46
2019-03-29T20:47:23.408Z,61.93
2019-03-29T20:49:50.046Z,62.02
2019-03-29T20:52:16.603Z,62.04
2019-03-29T20:54:43.186Z,61.99
2019-03-29T20:57:09.789Z,62.70
2019-03-29T20:59:36.519Z,62.16
2019-03-29T21:02:06.249Z,62.60
2019-03-29T21:04:33.274Z,62.33
2019-03-29T21:07:00.134Z,62.30
2019-03-29T21:09:26.733Z,62.32
2019-03-29T21:11:53.460Z,62.66
2019-03-29T21:14:20.311Z,62.65
2019-03-29T21:16:47.352Z,62.74
2019-03-29T21:19:14.263Z,62.67
2019-03-29T21:21:41.090Z,63.33
2019-03-29T21:24:07.721Z,63.33
2019-03-29T21:26:34.545Z,63.22
2019-03-29T21:29:01.606Z,63.25
2019-03-29T21:31:28.354Z,63.02
2019-03-29T21:33:54.966Z,63.11
2019-03-29T21:36:21.523Z,63.01
2019-03-29T21:38:48.110Z,63.25
2019-03-29T21:41:14.890Z,63.06
2019-03-29T21:43:41.458Z,63.24
2019-03-29T21:46:08.118Z,63.36
2019-03-29T21:48:34.813Z,63.06
2019-03-29T21:51:01.396Z,63.90
2019-03-29T21:53:29.308Z,63.47
2019-03-29T21:55:56.032Z,63.77
2019-03-29T21:58:22.863Z,63.83
2019-03-29T22:00:49.447Z,63.82
2019-03-29T22:03:16.196Z,63.84
2019-03-29T22:05:42.867Z,64.13
2019-03-29T22:08:09.769Z,63.95
2019-03-29T22:10:36.627Z,63.91
2019-03-29T22:13:03.555Z,63.76
2019-03-29T22:15:31.628Z,63.96
2019-03-29T22:17:58.506Z,64.05
2019-03-29T22:20:25.382Z,63.86
2019-03-29T22:22:51.999Z,64.05
2019-03-29T22:25:18.798Z,63.84
2019-03-29T22:27:45.608Z,63.91
2019-03-29T22:30:13.120Z,64.05
2019-03-29T22:32:39.819Z,63.95
2019-03-29T22:35:06.976Z,63.96
2019-03-29T22:37:34.015Z,64.16
2019-03-29T22:40:00.859Z,64.16
2019-03-29T22:42:27.859Z,64.25
2019-03-29T22:44:54.404Z,65.39
2019-03-29T22:47:21.030Z,67.22
2019-03-29T22:49:47.871Z,66.45
2019-03-29T22:52:14.424Z,66.41
2019-03-29T22:54:41.345Z,66.00
2019-03-29T22:57:08.239Z,66.27
2019-03-29T22:59:35.089Z,65.77
2019-03-29T23:02:02.197Z,64.87
2019-03-29T23:04:28.775Z,64.93
2019-03-29T23:06:55.368Z,64.38
2019-03-29T23:09:21.963Z,64.73
2019-03-29T23:11:48.650Z,65.78
2019-03-29T23:14:15.333Z,66.81
2019-03-29T23:16:44.708Z,66.00
2019-03-29T23:19:13.220Z,65.90
2019-03-29T23:21:39.871Z,66.22
2019-03-29T23:24:06.432Z,65.58
2019-03-29T23:26:34.243Z,65.08
2019-03-29T23:29:00.937Z,64.68
2019-03-29T23:31:27.547Z,65.33
2019-03-29T23:33:54.205Z,65.24
2019-03-29T23:36:21.033Z,65.37
2019-03-29T23:38:47.634Z,65.44
2019-03-29T23:41:14.278Z,65.30
2019-03-29T23:43:40.931Z,65.39
2019-03-29T23:46:07.562Z,65.41
2019-03-29T23:48:34.132Z,65.83
2019-03-29T23:51:00.713Z,66.94
2019-03-29T23:53:27.503Z,68.40
2019-03-29T23:55:54.324Z,68.31
2019-03-29T23:58:23.392Z,69.01
